createdAt,value
2022-08-17T00:00:27.602Z,-40.7
2022-08-17T00:01:34.109Z,-41.1
2022-08-17T00:02:40.630Z,-41.9
2022-08-17T00:03:47.150Z,-42.1
2022-08-17T00:04:53.685Z,-42.3
2022-08-17T00:06:00.180Z,-42.7
2022-08-17T00:07:06.703Z,-43.1
2022-08-17T00:08:13.229Z,-43.5
2022-08-17T00:09:19.985Z,-43.9
2022-08-17T00:10:26.752Z,-43.9
2022-08-17T00:11:33.523Z,-43.9
2022-08-17T00:12:40.291Z,-43.9
2022-08-17T00:13:47.059Z,-43.3
2022-08-17T00:14:53.820Z,-42.7
2022-08-17T00:16:00.576Z,-41.9
2022-08-17T00:17:07.334Z,-41.5
2022-08-17T00:18:14.095Z,-40.9
2022-08-17T00:19:20.854Z,-40.5
2022-08-17T00:20:27.606Z,-40.1
2022-08-17T00:21:34.382Z,-40.1
2022-08-17T00:22:41.132Z,-40.1
2022-08-17T00:23:48.403Z,-39.7
2022-08-17T00:25:27.130Z,-39.5
2022-08-17T00:27:05.856Z,-39.3
2022-08-17T00:28:44.578Z,-39.1
2022-08-17T00:30:23.307Z,-39.1
2022-08-17T00:32:02.038Z,-38.7
2022-08-17T00:33:40.762Z,-38.5
2022-08-17T00:35:19.479Z,-37.9
2022-08-17T00:36:58.201Z,-36.7
2022-08-17T00:38:36.911Z,-35.7
2022-08-17T00:40:15.628Z,-34.5
2022-08-17T00:41:54.350Z,-33.1
2022-08-17T00:43:33.087Z,-33.3
2022-08-17T00:47:41.080Z,-33.3
2022-08-17T00:48:47.538Z,-32.5
2022-08-17T00:50:56.665Z,-32.5
2022-08-17T00:52:03.065Z,-32.5
2022-08-17T00:53:09.460Z,-32.7
2022-08-17T00:54:15.854Z,-32.3
2022-08-17T00:55:22.256Z,-31.5
2022-08-17T00:56:28.652Z,-30.6
2022-08-17T00:57:35.040Z,-30
2022-08-17T00:58:41.435Z,-29.2
2022-08-17T00:59:47.832Z,-29.2
2022-08-17T01:00:54.245Z,-28.4
2022-08-17T01:02:00.631Z,-27.8
2022-08-17T01:03:07.028Z,-27.4
2022-08-17T01:04:13.416Z,-27
2022-08-17T01:05:19.818Z,-26.4
2022-08-17T01:06:26.202Z,-26.4
2022-08-17T01:07:32.605Z,-27
2022-08-17T01:08:39.000Z,-27
2022-08-17T01:09:45.428Z,-26.8
2022-08-17T01:10:51.780Z,-26.4
2022-08-17T01:11:58.177Z,-26
2022-08-17T01:13:04.560Z,-25.4
2022-08-17T01:14:10.955Z,-25
2022-08-17T01:15:17.364Z,-24.6
2022-08-17T01:16:23.753Z,-24
2022-08-17T01:17:30.285Z,-23.2
2022-08-17T01:18:36.803Z,-22.4
2022-08-17T01:19:43.306Z,-21.8
2022-08-17T01:20:49.833Z,-21.2
2022-08-17T01:21:56.349Z,-20.6
2022-08-17T01:23:02.867Z,-20
2022-08-17T01:24:09.383Z,-19.6
2022-08-17T01:25:15.895Z,-19
2022-08-17T01:26:22.404Z,-18.8
2022-08-17T01:27:28.906Z,-19
2022-08-17T01:28:35.414Z,-18.6
2022-08-17T01:29:41.923Z,-18.8
2022-08-17T01:30:48.437Z,-18.4
2022-08-17T01:32:20.530Z,-17.8
2022-08-17T01:33:27.295Z,-17.2
2022-08-17T01:34:34.056Z,-16.8
2022-08-17T01:35:40.808Z,-16
2022-08-17T01:36:47.574Z,-15.8
2022-08-17T01:37:54.333Z,-15.6
2022-08-17T01:39:01.095Z,-14.8
2022-08-17T01:40:07.854Z,-14.6
2022-08-17T01:41:14.626Z,-13.8
2022-08-17T01:42:21.376Z,-13.4
2022-08-17T01:43:28.128Z,-12.4
2022-08-17T01:44:34.887Z,-11.3
2022-08-17T01:45:41.626Z,-10.1
2022-08-17T01:48:59.749Z,-9.1
2022-08-17T01:50:38.488Z,-5.9
2022-08-17T01:52:17.230Z,-4.5
2022-08-17T01:53:24.459Z,-3.1
2022-08-17T01:54:31.696Z,-1.9
2022-08-17T01:56:10.438Z,-1.3
2022-08-17T01:57:49.185Z,-0.1
2022-08-17T01:59:27.937Z,0.8
2022-08-17T02:01:06.645Z,2.1
2022-08-17T02:02:45.371Z,3.3
2022-08-17T02:04:23.264Z,4.2
2022-08-17T02:05:29.685Z,4.7
2022-08-17T02:06:36.109Z,5.2
2022-08-17T02:07:42.536Z,5.7
2022-08-17T02:08:48.960Z,6.3
2022-08-17T02:09:55.372Z,6.8
2022-08-17T02:11:01.807Z,7.3
2022-08-17T02:12:08.238Z,7.8
2022-08-17T02:13:14.662Z,8
2022-08-17T02:14:21.079Z,7.9
2022-08-17T02:15:27.503Z,8
2022-08-17T02:16:33.931Z,8.4
2022-08-17T02:17:40.361Z,8.2
2022-08-17T02:18:46.786Z,8
2022-08-17T02:19:53.217Z,8.2
2022-08-17T02:20:59.646Z,8.6
2022-08-17T02:22:06.066Z,8.7
2022-08-17T02:23:12.506Z,9
2022-08-17T02:24:18.925Z,9.2
2022-08-17T02:25:25.345Z,9.7
2022-08-17T02:26:31.782Z,10.2
2022-08-17T02:27:38.144Z,10.2
2022-08-17T02:28:44.543Z,10.2
2022-08-17T02:29:50.900Z,11
2022-08-17T02:30:57.279Z,10.6
2022-08-17T02:32:03.784Z,11.3
2022-08-17T02:33:10.289Z,12
2022-08-17T02:34:16.776Z,12.7
2022-08-17T02:35:23.275Z,13.3
2022-08-17T02:36:29.786Z,13.5
2022-08-17T02:37:36.278Z,13.3
2022-08-17T02:38:42.775Z,13.8
2022-08-17T02:39:49.269Z,14.2
2022-08-17T02:40:55.774Z,14.6
2022-08-17T02:42:02.257Z,14.8
2022-08-17T02:43:08.754Z,15.4
2022-08-17T02:44:15.253Z,16
2022-08-17T02:45:21.750Z,16.6
2022-08-17T02:46:54.595Z,16.6
2022-08-17T02:48:01.333Z,16.4
2022-08-17T02:49:08.072Z,16.2
2022-08-17T02:50:14.810Z,16
2022-08-17T02:51:21.545Z,15.6
2022-08-17T02:52:28.291Z,15.4
2022-08-17T02:53:35.027Z,15.6
2022-08-17T02:54:41.760Z,15.8
2022-08-17T02:55:48.501Z,15.8
2022-08-17T02:56:55.245Z,15.6
2022-08-17T02:58:01.968Z,15.8
2022-08-17T02:59:08.711Z,16
2022-08-17T03:00:15.444Z,16.4
2022-08-17T03:03:33.597Z,17
2022-08-17T03:05:12.323Z,19
2022-08-17T03:06:51.054Z,19.4
2022-08-17T03:07:58.272Z,19.4
2022-08-17T03:09:05.495Z,20
2022-08-17T03:10:44.221Z,20.8
2022-08-17T03:12:22.948Z,21.2
2022-08-17T03:14:01.687Z,20.8
2022-08-17T03:15:40.398Z,17.8
2022-08-17T03:17:19.131Z,16.8
2022-08-17T03:18:57.850Z,15.4
2022-08-17T03:20:36.594Z,13.8
2022-08-17T03:22:15.309Z,13.5
2022-08-17T03:24:26.270Z,12.7
2022-08-17T03:26:21.575Z,13.5
2022-08-17T03:27:28.070Z,13.2
2022-08-17T03:28:34.577Z,13.8
2022-08-17T03:29:41.073Z,14.4
2022-08-17T03:30:47.577Z,15
2022-08-17T03:31:54.056Z,15.4
2022-08-17T03:33:00.554Z,16.2
2022-08-17T03:34:07.054Z,17
2022-08-17T03:35:13.543Z,17.6
2022-08-17T03:36:20.042Z,18.6
2022-08-17T03:37:26.544Z,19.4
2022-08-17T03:38:33.041Z,19.4
2022-08-17T03:39:39.531Z,18
2022-08-17T03:40:46.041Z,17.2
2022-08-17T03:41:52.545Z,17.4
2022-08-17T03:42:59.022Z,17.4
2022-08-17T03:44:05.519Z,17.4
2022-08-17T03:45:12.017Z,18
2022-08-17T03:46:18.514Z,18
2022-08-17T03:47:25.014Z,18
2022-08-17T03:48:31.502Z,18.2
2022-08-17T03:49:37.992Z,18
2022-08-17T03:50:44.498Z,19
2022-08-17T03:51:50.989Z,19.4
2022-08-17T03:52:57.493Z,19.4
2022-08-17T03:54:04.228Z,19.4
2022-08-17T03:55:10.970Z,20
2022-08-17T03:56:17.698Z,20.8
2022-08-17T03:57:24.444Z,22
2022-08-17T03:58:31.181Z,23.4
2022-08-17T03:59:37.915Z,22.6
2022-08-17T04:00:44.646Z,21.8
2022-08-17T04:01:51.386Z,21.2
2022-08-17T04:02:58.162Z,20.2
2022-08-17T04:04:04.915Z,19.6
2022-08-17T04:05:11.624Z,19.6
2022-08-17T04:06:18.357Z,19.2
2022-08-17T04:07:25.089Z,19.8
2022-08-17T04:10:04.020Z,20
2022-08-17T04:11:42.769Z,20
2022-08-17T04:13:21.516Z,20.2
2022-08-17T04:15:00.275Z,19.8
2022-08-17T04:16:07.524Z,18.6
2022-08-17T04:17:14.772Z,17.4
2022-08-17T04:18:53.523Z,16.8
2022-08-17T04:20:32.269Z,16.8
2022-08-17T04:22:11.019Z,17
2022-08-17T04:23:49.763Z,17
2022-08-17T04:25:28.517Z,17
2022-08-17T04:27:07.267Z,16.6
2022-08-17T04:28:46.012Z,15.6
2022-08-17T04:32:35.530Z,14.6
2022-08-17T04:33:42.198Z,13.2
2022-08-17T04:34:48.594Z,12.6
2022-08-17T04:35:55.007Z,11.4
2022-08-17T04:37:01.415Z,10.9
2022-08-17T04:38:07.822Z,10.1
2022-08-17T04:39:14.232Z,9.3
2022-08-17T04:40:20.640Z,8.7
2022-08-17T04:41:27.028Z,8.1
2022-08-17T04:42:33.430Z,7.8
2022-08-17T04:43:39.841Z,7.1
2022-08-17T04:44:46.230Z,6.6
2022-08-17T04:45:52.628Z,6.5
2022-08-17T04:46:59.032Z,6.2
2022-08-17T04:48:05.427Z,5.9
2022-08-17T04:49:11.828Z,5.6
2022-08-17T04:50:18.245Z,5.5
2022-08-17T04:51:24.617Z,5.3
2022-08-17T04:52:31.013Z,4.9
2022-08-17T04:53:37.424Z,4.9
2022-08-17T04:54:43.765Z,4.8
2022-08-17T04:55:50.193Z,4.7
2022-08-17T04:56:56.601Z,4.9
2022-08-17T04:58:03.016Z,4.9
2022-08-17T04:59:09.428Z,5
2022-08-17T05:00:15.851Z,5.1
2022-08-17T05:01:22.362Z,5
2022-08-17T05:02:28.887Z,5.1
2022-08-17T05:03:35.418Z,5.2
2022-08-17T05:04:41.959Z,5.3
2022-08-17T05:05:48.499Z,5.1
2022-08-17T05:06:55.022Z,5.1
2022-08-17T05:08:01.567Z,5.1
2022-08-17T05:09:08.084Z,5.1
2022-08-17T05:10:14.614Z,4.7
2022-08-17T05:11:21.150Z,4.4
2022-08-17T05:12:27.690Z,4.2
2022-08-17T05:13:34.220Z,3.6
2022-08-17T05:14:40.764Z,3.1
2022-08-17T05:16:30.096Z,2.3
2022-08-17T05:17:36.885Z,0.9
2022-08-17T05:18:43.604Z,-0.1
2022-08-17T05:19:50.386Z,-1.5
2022-08-17T05:20:57.192Z,-2.9
2022-08-17T05:22:03.985Z,-3.9
2022-08-17T05:23:10.772Z,-4.7
2022-08-17T05:24:17.553Z,-5.5
2022-08-17T05:25:24.354Z,-6.3
2022-08-17T05:26:31.165Z,-6.9
2022-08-17T05:27:37.945Z,-7.9
2022-08-17T05:28:44.733Z,-9.1
2022-08-17T05:29:51.493Z,-10.7
2022-08-17T05:33:09.635Z,-12.2
2022-08-17T05:34:45.154Z,-15
2022-08-17T05:35:52.432Z,-16.2
2022-08-17T05:37:31.155Z,-16.6
2022-08-17T05:39:09.879Z,-17.4
2022-08-17T05:40:48.595Z,-18.4
2022-08-17T05:42:27.316Z,-19.8
2022-08-17T05:44:06.047Z,-20.6
2022-08-17T05:45:44.777Z,-21.6
2022-08-17T05:47:23.480Z,-23.4
2022-08-17T05:49:02.207Z,-25.4
2022-08-17T05:50:40.943Z,-27
2022-08-17T05:51:48.219Z,-28.6
2022-08-17T05:54:48.913Z,-30.6
2022-08-17T05:58:06.373Z,-34.1
2022-08-17T06:01:23.762Z,-37.7
2022-08-17T06:04:39.479Z,-40.1
2022-08-17T06:05:46.058Z,-41.7
2022-08-17T06:06:52.609Z,-41.7
2022-08-17T06:07:59.174Z,-41.5
2022-08-17T06:09:05.747Z,-41.7
2022-08-17T06:10:12.309Z,-41.7
2022-08-17T06:11:18.861Z,-42.3
2022-08-17T06:12:25.423Z,-42.7
2022-08-17T06:13:31.979Z,-42.9
2022-08-17T06:14:38.545Z,-42.3
2022-08-17T06:15:45.123Z,-42.9
2022-08-17T06:16:51.695Z,-43.7
2022-08-17T06:17:58.242Z,-44.5
2022-08-17T06:19:04.814Z,-44.5
2022-08-17T06:21:17.924Z,-45.8
2022-08-17T06:22:24.482Z,-46
2022-08-17T06:23:31.054Z,-46.8
2022-08-17T06:24:37.604Z,-47
2022-08-17T06:25:44.164Z,-47.4
2022-08-17T06:26:50.721Z,-48.2
2022-08-17T06:27:57.287Z,-49
2022-08-17T06:29:03.847Z,-49.4
2022-08-17T06:30:10.423Z,-50.4
2022-08-17T06:31:16.980Z,-50.6
2022-08-17T06:32:23.793Z,-51.4
2022-08-17T06:33:30.584Z,-52.4
2022-08-17T06:34:37.408Z,-53
2022-08-17T06:35:44.195Z,-53.8
2022-08-17T06:36:51.000Z,-53.8
2022-08-17T06:37:57.803Z,-54.4
2022-08-17T06:39:04.613Z,-54.8
2022-08-17T06:40:11.401Z,-54.6
2022-08-17T06:41:18.239Z,-54.4
2022-08-17T06:42:25.056Z,-54.4
2022-08-17T06:43:31.823Z,-55
2022-08-17T06:44:38.627Z,-54.8
2022-08-17T06:45:45.427Z,-55
2022-08-17T06:48:25.279Z,-55.4
2022-08-17T06:50:04.000Z,-55.4
2022-08-17T06:51:42.711Z,-56.5
2022-08-17T06:53:21.431Z,-55.2
2022-08-17T06:54:28.710Z,-54
2022-08-17T06:55:35.995Z,-53.6
2022-08-17T06:57:14.727Z,-54.4
2022-08-17T06:58:53.434Z,-55.2
2022-08-17T07:00:32.147Z,-55.2
2022-08-17T07:02:10.858Z,-56.3
2022-08-17T07:03:49.596Z,-57.5
2022-08-17T07:05:28.308Z,-58.3
2022-08-17T07:07:07.042Z,-59.9
2022-08-17T07:10:56.755Z,-61.9
2022-08-17T07:12:03.214Z,-63.3
2022-08-17T07:13:09.646Z,-63.5
2022-08-17T07:14:16.079Z,-64.5
2022-08-17T07:15:22.513Z,-65.2
2022-08-17T07:16:28.948Z,-65.8
2022-08-17T07:17:35.384Z,-66.4
2022-08-17T07:18:41.814Z,-67.2
2022-08-17T07:19:48.226Z,-67.6
2022-08-17T07:20:54.622Z,-68.4
2022-08-17T07:22:01.056Z,-69.4
2022-08-17T07:23:07.485Z,-70.6
2022-08-17T07:24:13.943Z,-71
2022-08-17T07:25:20.370Z,-71.4
2022-08-17T07:26:26.807Z,-71.8
2022-08-17T07:27:33.243Z,-73.5
2022-08-17T07:28:39.679Z,-74.5
2022-08-17T07:29:46.121Z,-76.1
2022-08-17T07:30:52.557Z,-76.5
2022-08-17T07:31:58.994Z,-77.7
2022-08-17T07:33:05.430Z,-79.6
2022-08-17T07:34:11.870Z,-81.2
2022-08-17T07:35:18.286Z,-82.8
2022-08-17T07:36:24.659Z,-85.9
2022-08-17T07:37:31.052Z,-89.1
2022-08-17T07:38:37.431Z,-92.8
2022-08-17T07:39:43.912Z,-95.8
2022-08-17T07:40:50.443Z,-100.8
2022-08-17T07:41:56.948Z,-105.7
2022-08-17T07:43:03.474Z,-108.1
2022-08-17T07:44:09.984Z,-107.5
2022-08-17T07:45:16.478Z,-107.1
2022-08-17T07:46:22.987Z,-106.5
2022-08-17T07:47:29.493Z,-106.5
2022-08-17T07:48:35.996Z,-106.3
2022-08-17T07:49:42.514Z,-106.5
2022-08-17T07:50:49.013Z,-107.1
2022-08-17T07:51:55.514Z,-106.9
2022-08-17T07:53:02.023Z,-106.3
2022-08-17T07:54:51.339Z,-104.8
2022-08-17T07:55:58.092Z,-103.2
2022-08-17T07:57:04.830Z,-102.2
2022-08-17T07:58:11.577Z,-101.6
2022-08-17T07:59:18.317Z,-102
2022-08-17T08:00:25.063Z,-102
2022-08-17T08:01:31.805Z,-101.2
2022-08-17T08:02:38.558Z,-101.2
2022-08-17T08:03:45.309Z,-100.5
2022-08-17T08:04:52.045Z,-101.2
2022-08-17T08:05:58.789Z,-100.3
2022-08-17T08:07:05.538Z,-100.8
2022-08-17T08:08:12.278Z,-101.4
2022-08-17T08:11:30.429Z,-101.8
2022-08-17T08:13:06.077Z,-100.1
2022-08-17T08:14:13.365Z,-99.9
2022-08-17T08:15:52.123Z,-101.6
2022-08-17T08:17:30.880Z,-102.6
2022-08-17T08:19:09.584Z,-103.2
2022-08-17T08:20:48.277Z,-104.6
2022-08-17T08:22:27.031Z,-105.7
2022-08-17T08:24:05.734Z,-106.9
2022-08-17T08:25:44.453Z,-107.7
2022-08-17T08:27:23.167Z,-107.9
2022-08-17T08:29:01.858Z,-108.1
2022-08-17T08:30:09.099Z,-108.3
2022-08-17T08:33:09.848Z,-108.1
2022-08-17T08:36:27.253Z,-107.5
2022-08-17T08:39:44.653Z,-109.6
2022-08-17T08:43:02.093Z,-109.4
2022-08-17T08:46:19.502Z,-110.6
2022-08-17T08:47:27.735Z,-113
2022-08-17T08:49:36.932Z,-113.9
2022-08-17T08:52:52.519Z,-115.3
2022-08-17T08:53:58.911Z,-118.8
2022-08-17T08:55:05.305Z,-119.8
2022-08-17T08:56:11.679Z,-121.3
2022-08-17T08:57:18.078Z,-122.5
2022-08-17T08:58:24.463Z,-124
2022-08-17T08:59:30.877Z,-126.4
2022-08-17T09:00:37.254Z,-127.9
2022-08-17T09:01:43.642Z,-128.9
2022-08-17T09:02:50.041Z,-130.8
2022-08-17T09:03:56.436Z,-132.8
2022-08-17T09:05:02.811Z,-133.5
2022-08-17T09:06:09.211Z,-134.5
2022-08-17T09:07:15.599Z,-134.9
2022-08-17T09:08:21.985Z,-136
2022-08-17T09:09:28.377Z,-133.9
2022-08-17T09:10:34.763Z,-134.7
2022-08-17T09:11:41.152Z,-134.9
2022-08-17T09:12:47.540Z,-135.5
2022-08-17T09:13:53.933Z,-135.5
2022-08-17T09:15:00.324Z,-135.7
2022-08-17T09:16:06.713Z,-134.9
2022-08-17T09:17:13.106Z,-135.3
2022-08-17T09:18:19.497Z,-134.1
2022-08-17T09:19:25.885Z,-135.5
2022-08-17T09:20:32.405Z,-134.5
2022-08-17T09:21:38.913Z,-134.7
2022-08-17T09:22:45.438Z,-135.5
2022-08-17T09:23:51.944Z,-136.8
2022-08-17T09:24:58.454Z,-137.8
2022-08-17T09:26:04.967Z,-138.7
2022-08-17T09:27:11.502Z,-140.1
2022-08-17T09:28:18.003Z,-141.4
2022-08-17T09:29:24.516Z,-143.2
2022-08-17T09:30:31.036Z,-144.3
2022-08-17T09:31:37.550Z,-146.2
2022-08-17T09:32:44.073Z,-146.6
2022-08-17T09:33:50.581Z,-147.2
2022-08-17T09:35:39.924Z,-146.4
2022-08-17T09:36:46.678Z,-145.7
2022-08-17T09:37:53.427Z,-145.5
2022-08-17T09:39:00.197Z,-143.9
2022-08-17T09:40:06.949Z,-142.6
2022-08-17T09:41:13.698Z,-140.3
2022-08-17T09:42:20.467Z,-139.7
2022-08-17T09:43:27.220Z,-139.3
2022-08-17T09:44:33.967Z,-137.2
2022-08-17T09:45:40.725Z,-137.4
2022-08-17T09:46:47.485Z,-137
2022-08-17T09:47:54.233Z,-135.7
2022-08-17T09:49:00.989Z,-136.4
2022-08-17T09:52:19.091Z,-137.4
2022-08-17T09:53:57.840Z,-141.4
2022-08-17T09:55:05.105Z,-142.2
2022-08-17T09:56:12.493Z,-142.8
2022-08-17T09:57:51.094Z,-143
2022-08-17T09:59:29.847Z,-142.6
2022-08-17T10:01:08.584Z,-143.4
2022-08-17T10:02:47.343Z,-143.4
2022-08-17T10:04:26.081Z,-142.8
2022-08-17T10:06:04.824Z,-141.8
2022-08-17T10:07:43.580Z,-141.2
2022-08-17T10:09:22.310Z,-142.4
2022-08-17T10:11:01.058Z,-143.7
2022-08-17T10:12:40.761Z,-143.9
2022-08-17T10:15:56.495Z,-144.1
2022-08-17T10:17:03.000Z,-143.7
2022-08-17T10:18:09.516Z,-143.4
2022-08-17T10:19:16.031Z,-143.2
2022-08-17T10:20:22.550Z,-142
2022-08-17T10:21:29.109Z,-138.9
2022-08-17T10:22:35.600Z,-136.8
2022-08-17T10:23:42.108Z,-136
2022-08-17T10:24:48.609Z,-135.5
2022-08-17T10:25:55.104Z,-135.3
2022-08-17T10:27:01.604Z,-135.5
2022-08-17T10:28:08.117Z,-135.7
2022-08-17T10:29:14.611Z,-136
2022-08-17T10:30:21.111Z,-135.7
2022-08-17T10:31:27.615Z,-136
2022-08-17T10:32:34.111Z,-136
2022-08-17T10:33:40.597Z,-136
2022-08-17T10:34:47.100Z,-136
2022-08-17T10:35:53.608Z,-134.9
2022-08-17T10:37:00.112Z,-134.7
2022-08-17T10:38:06.623Z,-134.5
2022-08-17T10:39:13.122Z,-134.5
2022-08-17T10:40:19.630Z,-134.1
2022-08-17T10:41:26.135Z,-133.3
2022-08-17T10:42:32.641Z,-133.3
2022-08-17T10:43:39.385Z,-133.5
2022-08-17T10:44:46.132Z,-133.7
2022-08-17T10:45:52.864Z,-133.7
2022-08-17T10:46:59.614Z,-134.3
2022-08-17T10:48:06.371Z,-134.3
2022-08-17T10:49:13.116Z,-134.1
2022-08-17T10:50:19.857Z,-134.3
2022-08-17T10:51:26.623Z,-134.7
2022-08-17T10:52:33.354Z,-135.5
2022-08-17T10:53:40.105Z,-136
2022-08-17T10:54:46.843Z,-136.6
2022-08-17T10:55:53.592Z,-137.4
2022-08-17T10:57:00.337Z,-138
2022-08-17T10:59:39.148Z,-138.7
2022-08-17T11:01:17.883Z,-138.4
2022-08-17T11:02:56.623Z,-138.7
2022-08-17T11:04:35.364Z,-139.1
2022-08-17T11:05:42.615Z,-139.9
2022-08-17T11:06:49.861Z,-140.1
2022-08-17T11:08:28.589Z,-139.7
2022-08-17T11:10:07.332Z,-139.3
2022-08-17T11:11:46.032Z,-139.7
2022-08-17T11:13:24.735Z,-139.5
2022-08-17T11:15:03.484Z,-139.9
2022-08-17T11:16:42.193Z,-139.3
2022-08-17T11:18:20.943Z,-139.5
2022-08-17T11:22:10.626Z,-139.9
2022-08-17T11:23:18.844Z,-138
2022-08-17T11:26:36.232Z,-138.7
2022-08-17T11:29:53.651Z,-140.7
2022-08-17T11:33:11.052Z,-139.7
2022-08-17T11:36:28.459Z,-140.3
2022-08-17T11:39:45.861Z,-139.1
2022-08-17T11:43:03.304Z,-137.2
2022-08-17T11:46:18.876Z,-139.7
2022-08-17T11:47:25.287Z,-144.9
2022-08-17T11:48:31.670Z,-146.6
2022-08-17T11:49:38.075Z,-147.8
2022-08-17T11:50:44.472Z,-147.8
2022-08-17T11:51:50.864Z,-147.8
2022-08-17T11:52:57.260Z,-148.1
2022-08-17T11:54:03.664Z,-148.1
2022-08-17T11:55:10.057Z,-147.6
2022-08-17T11:56:16.458Z,-146.6
2022-08-17T11:57:22.842Z,-146
2022-08-17T11:58:29.228Z,-144.1
2022-08-17T11:59:35.627Z,-143.2
2022-08-17T12:00:42.019Z,-142.2
2022-08-17T12:01:48.416Z,-141.4
2022-08-17T12:02:54.804Z,-140.3
2022-08-17T12:04:01.196Z,-139.7
2022-08-17T12:05:07.585Z,-139.5
2022-08-17T12:06:14.005Z,-139.1
2022-08-17T12:07:20.360Z,-138.4
2022-08-17T12:08:26.735Z,-137.6
2022-08-17T12:09:33.124Z,-136.6
2022-08-17T12:10:39.534Z,-134.7
2022-08-17T12:11:45.902Z,-132.8
2022-08-17T12:12:52.289Z,-131.4
2022-08-17T12:13:58.824Z,-125.4
2022-08-17T12:15:05.346Z,-112.8
2022-08-17T12:16:11.869Z,-100.8
2022-08-17T12:17:18.393Z,-94.8
2022-08-17T12:18:24.959Z,-93
2022-08-17T12:19:31.525Z,-92.9
2022-08-17T12:20:38.092Z,-91.4
2022-08-17T12:21:44.681Z,-91.2
2022-08-17T12:22:51.248Z,-90.7
2022-08-17T12:23:57.804Z,-90.9
2022-08-17T12:25:04.372Z,-89.9
2022-08-17T12:26:10.946Z,-89.1
2022-08-17T12:27:17.525Z,-86.9
2022-08-17T12:28:50.686Z,-87.7
2022-08-17T12:29:57.496Z,-88.3
2022-08-17T12:31:04.319Z,-86.9
2022-08-17T12:32:11.128Z,-88.1
2022-08-17T12:33:17.945Z,-90.1
2022-08-17T12:34:24.764Z,-91.2
2022-08-17T12:35:31.581Z,-92.5
2022-08-17T12:36:38.385Z,-93.5
2022-08-17T12:37:45.198Z,-94
2022-08-17T12:38:51.988Z,-94.4
2022-08-17T12:39:58.751Z,-94.2
2022-08-17T12:41:05.514Z,-90.5
2022-08-17T12:42:12.279Z,-88.7
2022-08-17T12:45:30.460Z,-86.9
2022-08-17T12:47:09.177Z,-86.7
2022-08-17T12:48:47.904Z,-88.3
2022-08-17T12:49:55.153Z,-89.9
2022-08-17T12:51:02.399Z,-91.2
2022-08-17T12:52:41.122Z,-91.6
2022-08-17T12:54:19.841Z,-90.3
2022-08-17T12:55:58.565Z,-90.1
2022-08-17T12:57:37.271Z,-90.9
2022-08-17T12:59:16.001Z,-91.8
2022-08-17T13:00:54.712Z,-92.8
2022-08-17T13:02:33.430Z,-94.3
2022-08-17T13:04:12.159Z,-96.1
2022-08-17T13:06:23.186Z,-101.4
2022-08-17T13:08:18.305Z,-105.7
2022-08-17T13:09:24.712Z,-109.6
2022-08-17T13:10:31.110Z,-110.8
2022-08-17T13:11:37.519Z,-112
2022-08-17T13:12:43.922Z,-112.4
2022-08-17T13:13:50.337Z,-112
2022-08-17T13:14:56.731Z,-110.4
2022-08-17T13:16:03.135Z,-108.3
2022-08-17T13:17:09.543Z,-107.9
2022-08-17T13:18:15.947Z,-108.1
2022-08-17T13:20:28.751Z,-110
2022-08-17T13:21:35.147Z,-109.6
2022-08-17T13:22:41.551Z,-110.4
2022-08-17T13:23:47.955Z,-110.4
2022-08-17T13:24:54.332Z,-110.4
2022-08-17T13:26:00.722Z,-108.9
2022-08-17T13:27:07.126Z,-106.9
2022-08-17T13:28:13.514Z,-106.3
2022-08-17T13:29:19.906Z,-106.5
2022-08-17T13:30:26.299Z,-106.1
2022-08-17T13:31:32.703Z,-104.4
2022-08-17T13:32:39.086Z,-104.2
2022-08-17T13:33:45.483Z,-103.8
2022-08-17T13:34:51.866Z,-104.2
2022-08-17T13:35:58.400Z,-104.4
2022-08-17T13:37:04.907Z,-104.2
2022-08-17T13:38:11.440Z,-104.6
2022-08-17T13:39:17.957Z,-103.8
2022-08-17T13:41:30.997Z,-104.8
2022-08-17T13:42:37.515Z,-104
2022-08-17T13:43:44.053Z,-106.7
2022-08-17T13:44:50.562Z,-109.1
2022-08-17T13:45:57.088Z,-110.4
2022-08-17T13:47:03.604Z,-111.6
2022-08-17T13:48:10.127Z,-113.9
2022-08-17T13:49:16.645Z,-116.7
2022-08-17T13:50:24.571Z,-119.2
2022-08-17T13:51:31.326Z,-120.4
2022-08-17T13:52:38.093Z,-120.4
2022-08-17T13:53:44.855Z,-120.9
2022-08-17T13:54:51.628Z,-121.5
2022-08-17T13:55:58.384Z,-121.7
2022-08-17T13:57:05.154Z,-124.4
2022-08-17T13:58:11.915Z,-127.7
2022-08-17T13:59:18.674Z,-126
2022-08-17T14:00:25.438Z,-126.4
2022-08-17T14:01:32.215Z,-129.5
2022-08-17T14:02:38.960Z,-131
2022-08-17T14:03:45.753Z,-135.1
2022-08-17T14:07:03.845Z,-137.2
2022-08-17T14:08:11.097Z,-139.5
2022-08-17T14:09:18.347Z,-135.5
2022-08-17T14:10:57.082Z,-131.8
2022-08-17T14:12:35.848Z,-127
2022-08-17T14:14:14.584Z,-123.3
2022-08-17T14:15:53.334Z,-122.1
2022-08-17T14:17:32.083Z,-121.3
2022-08-17T14:19:10.829Z,-124
2022-08-17T14:20:49.537Z,-124.4
2022-08-17T14:22:28.283Z,-123.5
2022-08-17T14:24:07.018Z,-124.2
2022-08-17T14:25:14.265Z,-126.2
2022-08-17T14:28:15.078Z,-126.8
2022-08-17T14:31:30.744Z,-123.3
2022-08-17T14:32:37.260Z,-122.5
2022-08-17T14:33:43.781Z,-122.9
2022-08-17T14:34:50.291Z,-124
2022-08-17T14:35:56.806Z,-129.1
2022-08-17T14:37:03.326Z,-135.3
2022-08-17T14:38:09.842Z,-139.7
2022-08-17T14:39:16.355Z,-138
2022-08-17T14:40:22.878Z,-133.7
2022-08-17T14:41:29.378Z,-130.1
2022-08-17T14:42:35.889Z,-128.9
2022-08-17T14:43:42.400Z,-127.7
2022-08-17T14:44:48.890Z,-126.6
2022-08-17T14:45:55.409Z,-126.2
2022-08-17T14:47:01.904Z,-124.4
2022-08-17T14:48:08.413Z,-124.6
2022-08-17T14:49:14.923Z,-124.8
2022-08-17T14:50:21.430Z,-124.2
2022-08-17T14:51:27.942Z,-123.7
2022-08-17T14:52:34.448Z,-122.5
2022-08-17T14:53:40.959Z,-121.9
2022-08-17T14:54:47.460Z,-122.3
2022-08-17T14:55:53.967Z,-122.5
2022-08-17T14:57:00.487Z,-122.5
2022-08-17T14:58:06.978Z,-122.7
2022-08-17T14:59:13.735Z,-125
2022-08-17T15:00:20.506Z,-131
2022-08-17T15:01:27.274Z,-138.2
2022-08-17T15:02:34.016Z,-143.4
2022-08-17T15:03:40.811Z,-144.1
2022-08-17T15:04:47.562Z,-144.9
2022-08-17T15:05:54.323Z,-145.3
2022-08-17T15:07:01.094Z,-148.9
2022-08-17T15:08:07.873Z,-149.3
2022-08-17T15:09:14.628Z,-149.3
2022-08-17T15:10:21.394Z,-151
2022-08-17T15:11:28.153Z,-152.7
2022-08-17T15:12:34.911Z,-153.5
2022-08-17T15:13:42.190Z,-154.1
2022-08-17T15:15:20.933Z,-156.2
2022-08-17T15:16:59.678Z,-156.2
2022-08-17T15:18:38.423Z,-159.2
2022-08-17T15:20:17.177Z,-160.5
2022-08-17T15:21:55.924Z,-161.5
2022-08-17T15:23:34.663Z,-160
2022-08-17T15:25:13.404Z,-159.4
2022-08-17T15:26:52.161Z,-158.8
2022-08-17T15:28:30.895Z,-156.2
2022-08-17T15:30:09.641Z,-156.4
2022-08-17T15:31:48.387Z,-155.8
2022-08-17T15:33:27.118Z,-153.1
2022-08-17T15:37:35.133Z,-149.9
2022-08-17T15:38:43.343Z,-132
2022-08-17T15:40:52.547Z,-129.1
2022-08-17T15:44:09.957Z,-123.7
2022-08-17T15:47:27.366Z,-119
2022-08-17T15:50:44.792Z,-116.1
2022-08-17T15:54:02.205Z,-112.4
2022-08-17T15:57:19.617Z,-110
2022-08-17T16:00:37.020Z,-108.1
2022-08-17T16:03:54.437Z,-107.1
2022-08-17T16:07:11.831Z,-106.9
2022-08-17T16:10:29.232Z,-106.1
2022-08-17T16:11:37.430Z,-106.5
2022-08-17T16:16:14.955Z,-106.3
2022-08-17T16:19:32.413Z,-109.1
2022-08-17T16:22:49.818Z,-108.1
2022-08-17T16:26:07.223Z,-106.7
2022-08-17T16:29:24.679Z,-104.8
2022-08-17T16:32:42.132Z,-102.8
2022-08-17T16:35:59.568Z,-101.6
2022-08-17T16:39:16.972Z,-102.4
2022-08-17T16:42:34.419Z,-104.8
2022-08-17T16:44:31.403Z,-106.5
2022-08-17T16:45:51.822Z,-107.5
2022-08-17T16:49:09.291Z,-108.7
2022-08-17T16:52:26.682Z,-110.4
2022-08-17T16:58:12.378Z,-110.6
2022-08-17T17:01:29.759Z,-110.2
2022-08-17T17:04:47.147Z,-110.2
2022-08-17T17:08:04.558Z,-108.1
2022-08-17T17:11:21.970Z,-107.5
2022-08-17T17:14:39.379Z,-105.7
2022-08-17T17:17:25.381Z,-104.2
2022-08-17T17:18:33.597Z,-103.2
2022-08-17T17:21:50.996Z,-102.6
2022-08-17T17:25:08.393Z,-101.8
2022-08-17T17:28:25.860Z,-101.2
2022-08-17T17:31:43.287Z,-100.5
2022-08-17T17:34:58.828Z,-98.4
2022-08-17T17:36:05.206Z,-97.4
2022-08-17T17:37:11.581Z,-97.3
2022-08-17T17:38:17.972Z,-96.9
2022-08-17T17:39:24.335Z,-96.8
2022-08-17T17:40:30.720Z,-96.3
2022-08-17T17:41:37.111Z,-96.2
2022-08-17T17:42:43.485Z,-96
2022-08-17T17:43:49.858Z,-95.8
2022-08-17T17:44:56.237Z,-95.7
2022-08-17T17:46:02.622Z,-95.4
2022-08-17T17:47:08.995Z,-94.5
2022-08-17T17:48:15.384Z,-94.2
2022-08-17T17:49:21.750Z,-94.2
2022-08-17T17:50:28.137Z,-93.9
2022-08-17T17:51:34.532Z,-93.5
2022-08-17T17:52:40.892Z,-93.1
2022-08-17T17:53:47.228Z,-92.9
2022-08-17T17:54:53.580Z,-92.4
2022-08-17T17:55:59.957Z,-92.4
2022-08-17T17:57:06.336Z,-92.1
2022-08-17T17:58:12.696Z,-91.8
2022-08-17T17:59:19.079Z,-91.4
2022-08-17T18:00:25.460Z,-90.9
2022-08-17T18:01:31.855Z,-90.5
2022-08-17T18:02:38.302Z,-90.1
2022-08-17T18:03:44.754Z,-89.7
2022-08-17T18:04:51.201Z,-89.3
2022-08-17T18:05:57.637Z,-88.7
2022-08-17T18:07:04.076Z,-87.9
2022-08-17T18:08:10.509Z,-87.1
2022-08-17T18:09:16.958Z,-86.7